sensor_id;sensor_type;location;lat;lon;timestamp;temperature;humidity
38183;DHT22;23991;52.430;10.586;2022-07-29T00:00:13;18.40;47.70
38183;DHT22;23991;52.430;10.586;2022-07-29T00:02:39;18.30;47.70
38183;DHT22;23991;52.430;10.586;2022-07-29T00:05:04;18.30;47.60
38183;DHT22;23991;52.430;10.586;2022-07-29T00:07:30;18.30;47.70
38183;DHT22;23991;52.430;10.586;2022-07-29T00:09:56;18.30;47.90
38183;DHT22;23991;52.430;10.586;2022-07-29T00:12:23;18.20;48.00
38183;DHT22;23991;52.430;10.586;2022-07-29T00:14:49;18.10;48.20
38183;DHT22;23991;52.430;10.586;2022-07-29T00:17:15;18.10;48.50
38183;DHT22;23991;52.430;10.586;2022-07-29T00:19:41;18.10;48.50
38183;DHT22;23991;52.430;10.586;2022-07-29T00:22:06;18.10;48.60
38183;DHT22;23991;52.430;10.586;2022-07-29T00:24:32;18.00;48.80
38183;DHT22;23991;52.430;10.586;2022-07-29T00:26:58;18.00;48.80
38183;DHT22;23991;52.430;10.586;2022-07-29T00:29:23;18.00;48.80
38183;DHT22;23991;52.430;10.586;2022-07-29T00:31:49;17.90;48.80
38183;DHT22;23991;52.430;10.586;2022-07-29T00:34:14;17.90;49.00
38183;DHT22;23991;52.430;10.586;2022-07-29T00:36:59;17.90;49.10
38183;DHT22;23991;52.430;10.586;2022-07-29T00:39:24;17.80;49.20
38183;DHT22;23991;52.430;10.586;2022-07-29T00:41:50;17.80;49.30
38183;DHT22;23991;52.430;10.586;2022-07-29T00:44:16;17.80;49.40
38183;DHT22;23991;52.430;10.586;2022-07-29T00:46:42;17.80;49.50
38183;DHT22;23991;52.430;10.586;2022-07-29T00:49:08;17.70;49.70
38183;DHT22;23991;52.430;10.586;2022-07-29T00:51:37;17.70;50.20
38183;DHT22;23991;52.430;10.586;2022-07-29T00:54:03;17.70;50.40
38183;DHT22;23991;52.430;10.586;2022-07-29T00:56:33;17.70;50.60
38183;DHT22;23991;52.430;10.586;2022-07-29T00:58:59;17.60;50.50
38183;DHT22;23991;52.430;10.586;2022-07-29T01:01:25;17.60;50.70
38183;DHT22;23991;52.430;10.586;2022-07-29T01:03:51;17.50;50.60
38183;DHT22;23991;52.430;10.586;2022-07-29T01:06:18;17.50;50.70
38183;DHT22;23991;52.430;10.586;2022-07-29T01:08:47;17.50;51.00
38183;DHT22;23991;52.430;10.586;2022-07-29T01:11:15;17.50;50.90
38183;DHT22;23991;52.430;10.586;2022-07-29T01:13:43;17.50;50.90
38183;DHT22;23991;52.430;10.586;2022-07-29T01:16:18;17.50;50.80
38183;DHT22;23991;52.430;10.586;2022-07-29T01:18:47;17.50;51.10
38183;DHT22;23991;52.430;10.586;2022-07-29T01:21:29;17.40;51.10
38183;DHT22;23991;52.430;10.586;2022-07-29T01:24:06;17.40;51.10
38183;DHT22;23991;52.430;10.586;2022-07-29T01:26:46;17.40;50.90
38183;DHT22;23991;52.430;10.586;2022-07-29T01:32:06;17.40;51.80
38183;DHT22;23991;52.430;10.586;2022-07-29T01:34:48;17.30;51.80
38183;DHT22;23991;52.430;10.586;2022-07-29T01:39:48;17.30;52.20
38183;DHT22;23991;52.430;10.586;2022-07-29T01:42:29;17.30;52.40
38183;DHT22;23991;52.430;10.586;2022-07-29T01:45:15;17.30;52.80
38183;DHT22;23991;52.430;10.586;2022-07-29T01:47:51;17.30;52.80
38183;DHT22;23991;52.430;10.586;2022-07-29T01:50:21;17.30;52.80
38183;DHT22;23991;52.430;10.586;2022-07-29T01:52:58;17.30;52.80
38183;DHT22;23991;52.430;10.586;2022-07-29T01:55:28;17.30;52.80
38183;DHT22;23991;52.430;10.586;2022-07-29T01:57:56;17.30;52.80
38183;DHT22;23991;52.430;10.586;2022-07-29T02:00:23;17.20;52.90
38183;DHT22;23991;52.430;10.586;2022-07-29T02:02:49;17.20;52.90
38183;DHT22;23991;52.430;10.586;2022-07-29T02:05:18;17.20;53.00
38183;DHT22;23991;52.430;10.586;2022-07-29T02:07:46;17.20;53.20
38183;DHT22;23991;52.430;10.586;2022-07-29T02:10:13;17.10;53.20
38183;DHT22;23991;52.430;10.586;2022-07-29T02:12:40;17.20;53.30
38183;DHT22;23991;52.430;10.586;2022-07-29T02:15:08;17.10;53.40
38183;DHT22;23991;52.430;10.586;2022-07-29T02:17:43;17.10;53.50
38183;DHT22;23991;52.430;10.586;2022-07-29T02:20:12;17.10;53.70
38183;DHT22;23991;52.430;10.586;2022-07-29T02:22:39;17.10;53.80
38183;DHT22;23991;52.430;10.586;2022-07-29T02:25:07;17.00;53.60
38183;DHT22;23991;52.430;10.586;2022-07-29T02:27:34;17.00;53.70
38183;DHT22;23991;52.430;10.586;2022-07-29T02:30:02;16.90;53.70
38183;DHT22;23991;52.430;10.586;2022-07-29T02:32:29;16.90;53.90
38183;DHT22;23991;52.430;10.586;2022-07-29T02:34:56;16.90;54.00
38183;DHT22;23991;52.430;10.586;2022-07-29T02:37:24;17.00;54.00
38183;DHT22;23991;52.430;10.586;2022-07-29T02:39:53;16.90;54.10
38183;DHT22;23991;52.430;10.586;2022-07-29T02:42:21;16.90;54.20
38183;DHT22;23991;52.430;10.586;2022-07-29T02:44:48;16.90;54.20
38183;DHT22;23991;52.430;10.586;2022-07-29T02:50:12;16.90;54.40
38183;DHT22;23991;52.430;10.586;2022-07-29T02:53:16;16.90;54.30
38183;DHT22;23991;52.430;10.586;2022-07-29T02:55:43;16.90;54.60
38183;DHT22;23991;52.430;10.586;2022-07-29T02:58:38;16.90;54.80
38183;DHT22;23991;52.430;10.586;2022-07-29T03:01:10;16.80;55.00
38183;DHT22;23991;52.430;10.586;2022-07-29T03:03:38;16.80;55.20
38183;DHT22;23991;52.430;10.586;2022-07-29T03:06:05;16.80;55.40
38183;DHT22;23991;52.430;10.586;2022-07-29T03:08:32;16.80;55.50
38183;DHT22;23991;52.430;10.586;2022-07-29T03:11:00;16.80;55.60
38183;DHT22;23991;52.430;10.586;2022-07-29T03:13:27;16.70;55.60
38183;DHT22;23991;52.430;10.586;2022-07-29T03:15:55;16.80;55.80
38183;DHT22;23991;52.430;10.586;2022-07-29T03:18:21;16.70;55.90
38183;DHT22;23991;52.430;10.586;2022-07-29T03:20:47;16.70;56.10
38183;DHT22;23991;52.430;10.586;2022-07-29T03:23:18;16.60;56.20
38183;DHT22;23991;52.430;10.586;2022-07-29T03:25:44;16.60;56.30
38183;DHT22;23991;52.430;10.586;2022-07-29T03:28:10;16.60;56.50
38183;DHT22;23991;52.430;10.586;2022-07-29T03:30:35;16.50;56.50
38183;DHT22;23991;52.430;10.586;2022-07-29T03:33:01;16.50;56.80
38183;DHT22;23991;52.430;10.586;2022-07-29T03:35:27;16.40;57.00
38183;DHT22;23991;52.430;10.586;2022-07-29T03:37:52;16.50;57.00
38183;DHT22;23991;52.430;10.586;2022-07-29T03:40:22;16.50;57.20
38183;DHT22;23991;52.430;10.586;2022-07-29T03:42:49;16.50;57.30
38183;DHT22;23991;52.430;10.586;2022-07-29T03:45:18;16.50;57.40
38183;DHT22;23991;52.430;10.586;2022-07-29T03:47:52;16.50;57.50
38183;DHT22;23991;52.430;10.586;2022-07-29T03:50:19;16.40;57.40
38183;DHT22;23991;52.430;10.586;2022-07-29T03:52:46;16.40;57.60
38183;DHT22;23991;52.430;10.586;2022-07-29T03:55:12;16.40;57.70
38183;DHT22;23991;52.430;10.586;2022-07-29T03:57:38;16.50;57.70
38183;DHT22;23991;52.430;10.586;2022-07-29T04:00:06;16.40;57.90
38183;DHT22;23991;52.430;10.586;2022-07-29T04:02:32;16.50;57.80
38183;DHT22;23991;52.430;10.586;2022-07-29T04:04:58;16.40;58.10
38183;DHT22;23991;52.430;10.586;2022-07-29T04:07:23;16.50;57.90
38183;DHT22;23991;52.430;10.586;2022-07-29T04:09:49;16.50;57.70
38183;DHT22;23991;52.430;10.586;2022-07-29T04:12:14;16.60;57.50
38183;DHT22;23991;52.430;10.586;2022-07-29T04:14:40;16.70;57.60
38183;DHT22;23991;52.430;10.586;2022-07-29T04:17:05;16.80;57.40
38183;DHT22;23991;52.430;10.586;2022-07-29T04:19:32;16.80;57.40
38183;DHT22;23991;52.430;10.586;2022-07-29T04:21:58;16.80;57.30
38183;DHT22;23991;52.430;10.586;2022-07-29T04:24:24;16.80;57.10
38183;DHT22;23991;52.430;10.586;2022-07-29T04:26:50;16.90;57.10
38183;DHT22;23991;52.430;10.586;2022-07-29T04:29:16;16.90;57.10
38183;DHT22;23991;52.430;10.586;2022-07-29T04:31:42;17.00;57.10
38183;DHT22;23991;52.430;10.586;2022-07-29T04:34:08;17.10;56.90
38183;DHT22;23991;52.430;10.586;2022-07-29T04:36:34;17.10;56.70
38183;DHT22;23991;52.430;10.586;2022-07-29T04:39:00;17.20;56.60
38183;DHT22;23991;52.430;10.586;2022-07-29T04:41:27;17.20;56.60
38183;DHT22;23991;52.430;10.586;2022-07-29T04:43:53;17.20;56.80
38183;DHT22;23991;52.430;10.586;2022-07-29T04:46:18;17.30;56.40
38183;DHT22;23991;52.430;10.586;2022-07-29T04:48:47;17.40;56.20
38183;DHT22;23991;52.430;10.586;2022-07-29T04:51:16;17.40;56.30
38183;DHT22;23991;52.430;10.586;2022-07-29T04:53:42;17.50;56.10
38183;DHT22;23991;52.430;10.586;2022-07-29T04:56:07;17.60;56.00
38183;DHT22;23991;52.430;10.586;2022-07-29T04:58:36;17.70;55.90
38183;DHT22;23991;52.430;10.586;2022-07-29T05:01:03;17.80;55.90
38183;DHT22;23991;52.430;10.586;2022-07-29T05:03:28;17.80;55.80
38183;DHT22;23991;52.430;10.586;2022-07-29T05:05:54;18.00;55.60
38183;DHT22;23991;52.430;10.586;2022-07-29T05:08:20;18.10;55.70
38183;DHT22;23991;52.430;10.586;2022-07-29T05:10:45;18.20;55.20
38183;DHT22;23991;52.430;10.586;2022-07-29T05:13:11;18.30;55.10
38183;DHT22;23991;52.430;10.586;2022-07-29T05:15:37;18.40;55.00
38183;DHT22;23991;52.430;10.586;2022-07-29T05:18:03;18.40;54.80
38183;DHT22;23991;52.430;10.586;2022-07-29T05:20:29;18.40;54.70
38183;DHT22;23991;52.430;10.586;2022-07-29T05:22:57;18.50;54.50
38183;DHT22;23991;52.430;10.586;2022-07-29T05:25:23;18.60;54.60
38183;DHT22;23991;52.430;10.586;2022-07-29T05:27:49;18.70;54.30
38183;DHT22;23991;52.430;10.586;2022-07-29T05:30:14;18.80;54.00
38183;DHT22;23991;52.430;10.586;2022-07-29T05:32:40;18.80;53.80
38183;DHT22;23991;52.430;10.586;2022-07-29T05:35:06;18.80;53.70
38183;DHT22;23991;52.430;10.586;2022-07-29T05:37:32;18.90;53.80
38183;DHT22;23991;52.430;10.586;2022-07-29T05:39:58;19.10;53.50
38183;DHT22;23991;52.430;10.586;2022-07-29T05:42:24;19.10;53.50
38183;DHT22;23991;52.430;10.586;2022-07-29T05:44:50;19.20;53.30
38183;DHT22;23991;52.430;10.586;2022-07-29T05:47:16;19.30;52.90
38183;DHT22;23991;52.430;10.586;2022-07-29T05:49:41;19.30;52.90
38183;DHT22;23991;52.430;10.586;2022-07-29T05:52:07;19.40;52.70
38183;DHT22;23991;52.430;10.586;2022-07-29T05:54:33;19.40;52.60
38183;DHT22;23991;52.430;10.586;2022-07-29T05:56:58;19.50;52.80
38183;DHT22;23991;52.430;10.586;2022-07-29T05:59:24;19.70;52.50
38183;DHT22;23991;52.430;10.586;2022-07-29T06:01:49;19.80;52.00
38183;DHT22;23991;52.430;10.586;2022-07-29T06:04:15;19.80;52.20
38183;DHT22;23991;52.430;10.586;2022-07-29T06:06:40;19.90;52.40
38183;DHT22;23991;52.430;10.586;2022-07-29T06:09:06;20.00;52.10
38183;DHT22;23991;52.430;10.586;2022-07-29T06:11:31;20.20;51.40
38183;DHT22;23991;52.430;10.586;2022-07-29T06:13:57;20.20;51.40
38183;DHT22;23991;52.430;10.586;2022-07-29T06:16:22;20.30;50.90
38183;DHT22;23991;52.430;10.586;2022-07-29T06:18:48;20.30;50.90
38183;DHT22;23991;52.430;10.586;2022-07-29T06:21:14;20.50;51.00
38183;DHT22;23991;52.430;10.586;2022-07-29T06:23:40;20.60;50.90
38183;DHT22;23991;52.430;10.586;2022-07-29T06:26:06;20.70;50.50
38183;DHT22;23991;52.430;10.586;2022-07-29T06:28:32;20.80;50.10
38183;DHT22;23991;52.430;10.586;2022-07-29T06:30:59;21.10;49.70
38183;DHT22;23991;52.430;10.586;2022-07-29T06:33:24;21.30;49.60
38183;DHT22;23991;52.430;10.586;2022-07-29T06:35:50;21.40;48.80
38183;DHT22;23991;52.430;10.586;2022-07-29T06:38:16;21.70;48.40
38183;DHT22;23991;52.430;10.586;2022-07-29T06:40:45;21.70;47.90
38183;DHT22;23991;52.430;10.586;2022-07-29T06:43:30;21.70;47.90
38183;DHT22;23991;52.430;10.586;2022-07-29T06:46:00;21.90;47.80
38183;DHT22;23991;52.430;10.586;2022-07-29T06:48:26;22.10;47.50
38183;DHT22;23991;52.430;10.586;2022-07-29T06:50:52;22.10;47.40
38183;DHT22;23991;52.430;10.586;2022-07-29T06:53:17;22.20;47.20
38183;DHT22;23991;52.430;10.586;2022-07-29T06:55:43;22.20;47.40
38183;DHT22;23991;52.430;10.586;2022-07-29T06:58:08;22.40;46.60
38183;DHT22;23991;52.430;10.586;2022-07-29T07:00:34;22.50;46.20
38183;DHT22;23991;52.430;10.586;2022-07-29T07:03:00;22.50;46.20
38183;DHT22;23991;52.430;10.586;2022-07-29T07:05:26;22.70;46.20
38183;DHT22;23991;52.430;10.586;2022-07-29T07:07:52;22.80;46.20
38183;DHT22;23991;52.430;10.586;2022-07-29T07:10:17;23.00;45.70
38183;DHT22;23991;52.430;10.586;2022-07-29T07:12:43;23.10;45.20
38183;DHT22;23991;52.430;10.586;2022-07-29T07:15:09;23.30;44.30
38183;DHT22;23991;52.430;10.586;2022-07-29T07:17:34;23.40;44.20
38183;DHT22;23991;52.430;10.586;2022-07-29T07:20:00;23.50;43.70
38183;DHT22;23991;52.430;10.586;2022-07-29T07:22:25;23.60;43.40
38183;DHT22;23991;52.430;10.586;2022-07-29T07:24:51;23.70;43.40
38183;DHT22;23991;52.430;10.586;2022-07-29T07:27:17;23.80;44.00
38183;DHT22;23991;52.430;10.586;2022-07-29T07:29:42;23.90;43.60
38183;DHT22;23991;52.430;10.586;2022-07-29T07:32:08;24.30;43.30
38183;DHT22;23991;52.430;10.586;2022-07-29T07:34:34;24.50;42.30
38183;DHT22;23991;52.430;10.586;2022-07-29T07:36:59;24.80;41.60
38183;DHT22;23991;52.430;10.586;2022-07-29T07:39:25;25.20;40.50
38183;DHT22;23991;52.430;10.586;2022-07-29T07:41:52;25.50;40.40
38183;DHT22;23991;52.430;10.586;2022-07-29T07:44:17;25.80;39.00
38183;DHT22;23991;52.430;10.586;2022-07-29T07:46:43;26.20;38.90
38183;DHT22;23991;52.430;10.586;2022-07-29T07:49:10;26.70;37.30
38183;DHT22;23991;52.430;10.586;2022-07-29T07:51:36;26.80;36.70
38183;DHT22;23991;52.430;10.586;2022-07-29T07:54:01;26.80;36.90
38183;DHT22;23991;52.430;10.586;2022-07-29T07:56:27;26.80;37.10
38183;DHT22;23991;52.430;10.586;2022-07-29T07:58:53;27.00;36.90
38183;DHT22;23991;52.430;10.586;2022-07-29T08:01:18;27.20;36.40
38183;DHT22;23991;52.430;10.586;2022-07-29T08:03:47;27.30;35.90
38183;DHT22;23991;52.430;10.586;2022-07-29T08:06:12;27.40;35.90
38183;DHT22;23991;52.430;10.586;2022-07-29T08:08:38;27.50;35.80
38183;DHT22;23991;52.430;10.586;2022-07-29T08:11:04;27.30;35.90
38183;DHT22;23991;52.430;10.586;2022-07-29T08:13:29;27.00;36.60
38183;DHT22;23991;52.430;10.586;2022-07-29T08:15:56;27.10;36.80
38183;DHT22;23991;52.430;10.586;2022-07-29T08:18:27;27.10;37.20
38183;DHT22;23991;52.430;10.586;2022-07-29T08:20:53;27.10;36.70
38183;DHT22;23991;52.430;10.586;2022-07-29T08:23:19;27.10;36.90
38183;DHT22;23991;52.430;10.586;2022-07-29T08:25:44;27.20;36.70
38183;DHT22;23991;52.430;10.586;2022-07-29T08:28:10;27.30;36.80
38183;DHT22;23991;52.430;10.586;2022-07-29T08:30:36;27.10;36.90
38183;DHT22;23991;52.430;10.586;2022-07-29T08:33:01;27.20;37.00
38183;DHT22;23991;52.430;10.586;2022-07-29T08:35:27;27.10;36.90
38183;DHT22;23991;52.430;10.586;2022-07-29T08:37:53;27.10;36.90
38183;DHT22;23991;52.430;10.586;2022-07-29T08:40:20;27.20;36.70
38183;DHT22;23991;52.430;10.586;2022-07-29T08:42:46;27.10;36.30
38183;DHT22;23991;52.430;10.586;2022-07-29T08:45:12;27.10;36.60
38183;DHT22;23991;52.430;10.586;2022-07-29T08:47:38;27.00;37.10
38183;DHT22;23991;52.430;10.586;2022-07-29T08:50:08;27.10;36.70
38183;DHT22;23991;52.430;10.586;2022-07-29T08:52:37;27.30;36.60
38183;DHT22;23991;52.430;10.586;2022-07-29T08:55:04;27.50;36.70
38183;DHT22;23991;52.430;10.586;2022-07-29T08:57:30;27.50;36.80
38183;DHT22;23991;52.430;10.586;2022-07-29T09:00:00;27.90;36.00
38183;DHT22;23991;52.430;10.586;2022-07-29T09:02:28;28.10;35.80
38183;DHT22;23991;52.430;10.586;2022-07-29T09:04:55;28.40;35.00
38183;DHT22;23991;52.430;10.586;2022-07-29T09:07:21;28.50;35.00
38183;DHT22;23991;52.430;10.586;2022-07-29T09:09:47;28.60;35.10
38183;DHT22;23991;52.430;10.586;2022-07-29T09:12:13;28.60;34.70
38183;DHT22;23991;52.430;10.586;2022-07-29T09:14:39;28.50;34.80
38183;DHT22;23991;52.430;10.586;2022-07-29T09:17:06;28.70;34.40
38183;DHT22;23991;52.430;10.586;2022-07-29T09:19:34;29.00;34.70
38183;DHT22;23991;52.430;10.586;2022-07-29T09:22:05;29.50;33.80
38183;DHT22;23991;52.430;10.586;2022-07-29T09:24:45;29.90;33.50
38183;DHT22;23991;52.430;10.586;2022-07-29T09:27:23;30.40;32.30
38183;DHT22;23991;52.430;10.586;2022-07-29T09:30:00;30.70;31.20
38183;DHT22;23991;52.430;10.586;2022-07-29T09:32:26;31.60;30.10
38183;DHT22;23991;52.430;10.586;2022-07-29T09:35:16;31.80;29.60
38183;DHT22;23991;52.430;10.586;2022-07-29T09:37:43;32.50;28.70
38183;DHT22;23991;52.430;10.586;2022-07-29T09:40:28;33.00;27.50
38183;DHT22;23991;52.430;10.586;2022-07-29T09:42:54;33.40;27.30
38183;DHT22;23991;52.430;10.586;2022-07-29T09:45:31;33.80;27.00
38183;DHT22;23991;52.430;10.586;2022-07-29T09:47:58;34.20;26.90
38183;DHT22;23991;52.430;10.586;2022-07-29T09:50:54;34.30;25.90
38183;DHT22;23991;52.430;10.586;2022-07-29T09:53:35;34.10;26.70
38183;DHT22;23991;52.430;10.586;2022-07-29T09:56:01;34.20;26.30
38183;DHT22;23991;52.430;10.586;2022-07-29T09:58:27;34.00;26.70
38183;DHT22;23991;52.430;10.586;2022-07-29T10:00:54;34.70;26.10
38183;DHT22;23991;52.430;10.586;2022-07-29T10:03:20;35.00;25.60
38183;DHT22;23991;52.430;10.586;2022-07-29T10:06:07;35.30;25.60
38183;DHT22;23991;52.430;10.586;2022-07-29T10:08:32;35.90;24.90
38183;DHT22;23991;52.430;10.586;2022-07-29T10:11:15;36.20;24.30
38183;DHT22;23991;52.430;10.586;2022-07-29T10:13:42;36.40;24.00
38183;DHT22;23991;52.430;10.586;2022-07-29T10:16:08;36.50;24.10
38183;DHT22;23991;52.430;10.586;2022-07-29T10:18:34;37.00;23.50
38183;DHT22;23991;52.430;10.586;2022-07-29T10:21:01;37.20;22.80
38183;DHT22;23991;52.430;10.586;2022-07-29T10:23:28;37.20;22.90
38183;DHT22;23991;52.430;10.586;2022-07-29T10:25:54;36.90;23.70
38183;DHT22;23991;52.430;10.586;2022-07-29T10:28:20;37.10;23.20
38183;DHT22;23991;52.430;10.586;2022-07-29T10:30:46;37.40;23.00
38183;DHT22;23991;52.430;10.586;2022-07-29T10:33:28;37.80;22.30
38183;DHT22;23991;52.430;10.586;2022-07-29T10:36:05;37.70;22.60
38183;DHT22;23991;52.430;10.586;2022-07-29T10:44:37;38.90;21.60
38183;DHT22;23991;52.430;10.586;2022-07-29T10:46:44;38.90;21.10
38183;DHT22;23991;52.430;10.586;2022-07-29T10:52:06;39.20;21.00
38183;DHT22;23991;52.430;10.586;2022-07-29T10:57:23;38.70;21.30
38183;DHT22;23991;52.430;10.586;2022-07-29T11:00:36;38.50;21.80
38183;DHT22;23991;52.430;10.586;2022-07-29T11:02:40;39.00;21.30
38183;DHT22;23991;52.430;10.586;2022-07-29T11:07:38;38.90;21.50
38183;DHT22;23991;52.430;10.586;2022-07-29T11:15:10;37.90;22.00
38183;DHT22;23991;52.430;10.586;2022-07-29T11:23:30;37.00;23.30
38183;DHT22;23991;52.430;10.586;2022-07-29T11:26:15;36.40;22.80
38183;DHT22;23991;52.430;10.586;2022-07-29T11:31:45;36.10;23.30
38183;DHT22;23991;52.430;10.586;2022-07-29T11:37:19;36.30;23.50
38183;DHT22;23991;52.430;10.586;2022-07-29T11:45:04;35.40;24.00
38183;DHT22;23991;52.430;10.586;2022-07-29T11:47:36;35.20;24.40
38183;DHT22;23991;52.430;10.586;2022-07-29T11:50:05;35.20;24.60
38183;DHT22;23991;52.430;10.586;2022-07-29T11:52:42;35.20;23.90
38183;DHT22;23991;52.430;10.586;2022-07-29T11:55:10;35.60;23.60
38183;DHT22;23991;52.430;10.586;2022-07-29T11:57:37;35.90;22.90
38183;DHT22;23991;52.430;10.586;2022-07-29T12:00:07;36.30;21.90
38183;DHT22;23991;52.430;10.586;2022-07-29T12:02:43;36.50;21.30
38183;DHT22;23991;52.430;10.586;2022-07-29T12:05:09;36.70;21.10
38183;DHT22;23991;52.430;10.586;2022-07-29T12:07:37;36.70;20.90
38183;DHT22;23991;52.430;10.586;2022-07-29T12:10:04;36.60;20.80
38183;DHT22;23991;52.430;10.586;2022-07-29T12:12:30;36.80;20.70
38183;DHT22;23991;52.430;10.586;2022-07-29T12:14:56;36.50;21.00
38183;DHT22;23991;52.430;10.586;2022-07-29T12:17:31;36.50;21.00
38183;DHT22;23991;52.430;10.586;2022-07-29T12:19:58;36.10;21.60
38183;DHT22;23991;52.430;10.586;2022-07-29T12:24:55;35.70;22.00
38183;DHT22;23991;52.430;10.586;2022-07-29T12:27:20;35.50;21.90
38183;DHT22;23991;52.430;10.586;2022-07-29T12:30:00;35.10;22.30
38183;DHT22;23991;52.430;10.586;2022-07-29T12:32:46;35.20;22.40
38183;DHT22;23991;52.430;10.586;2022-07-29T12:35:19;35.40;22.50
38183;DHT22;23991;52.430;10.586;2022-07-29T12:37:46;35.20;22.50
38183;DHT22;23991;52.430;10.586;2022-07-29T12:40:18;35.10;23.00
38183;DHT22;23991;52.430;10.586;2022-07-29T12:45:39;35.40;23.10
38183;DHT22;23991;52.430;10.586;2022-07-29T12:48:06;35.50;22.80
38183;DHT22;23991;52.430;10.586;2022-07-29T12:50:35;35.40;22.90
38183;DHT22;23991;52.430;10.586;2022-07-29T12:53:13;35.30;22.80
38183;DHT22;23991;52.430;10.586;2022-07-29T12:58:05;35.00;22.80
38183;DHT22;23991;52.430;10.586;2022-07-29T13:00:31;35.10;22.70
38183;DHT22;23991;52.430;10.586;2022-07-29T13:02:57;35.00;22.80
38183;DHT22;23991;52.430;10.586;2022-07-29T13:05:23;35.40;22.80
38183;DHT22;23991;52.430;10.586;2022-07-29T13:07:49;35.30;22.50
38183;DHT22;23991;52.430;10.586;2022-07-29T13:10:20;35.90;22.10
38183;DHT22;23991;52.430;10.586;2022-07-29T13:13:05;36.10;22.20
38183;DHT22;23991;52.430;10.586;2022-07-29T13:15:32;36.10;21.50
38183;DHT22;23991;52.430;10.586;2022-07-29T13:17:58;36.10;21.80
38183;DHT22;23991;52.430;10.586;2022-07-29T13:20:25;36.10;21.50
38183;DHT22;23991;52.430;10.586;2022-07-29T13:22:52;36.00;21.70
38183;DHT22;23991;52.430;10.586;2022-07-29T13:25:29;36.00;21.70
38183;DHT22;23991;52.430;10.586;2022-07-29T13:27:56;35.80;21.40
38183;DHT22;23991;52.430;10.586;2022-07-29T13:30:22;35.60;22.10
38183;DHT22;23991;52.430;10.586;2022-07-29T13:32:49;35.70;22.10
38183;DHT22;23991;52.430;10.586;2022-07-29T13:35:14;35.60;22.00
38183;DHT22;23991;52.430;10.586;2022-07-29T13:37:40;35.60;22.30
38183;DHT22;23991;52.430;10.586;2022-07-29T13:40:10;35.90;21.90
38183;DHT22;23991;52.430;10.586;2022-07-29T13:42:36;35.90;21.50
38183;DHT22;23991;52.430;10.586;2022-07-29T13:45:03;35.50;22.20
38183;DHT22;23991;52.430;10.586;2022-07-29T13:47:29;35.40;22.40
38183;DHT22;23991;52.430;10.586;2022-07-29T13:49:55;35.30;22.40
38183;DHT22;23991;52.430;10.586;2022-07-29T13:52:21;35.30;22.00
38183;DHT22;23991;52.430;10.586;2022-07-29T13:54:46;35.50;22.00
38183;DHT22;23991;52.430;10.586;2022-07-29T13:57:13;35.60;22.00
38183;DHT22;23991;52.430;10.586;2022-07-29T13:59:40;35.40;22.20
38183;DHT22;23991;52.430;10.586;2022-07-29T14:02:06;35.20;22.80
38183;DHT22;23991;52.430;10.586;2022-07-29T14:04:32;35.20;22.70
38183;DHT22;23991;52.430;10.586;2022-07-29T14:06:57;35.10;22.20
38183;DHT22;23991;52.430;10.586;2022-07-29T14:09:23;35.10;22.30
38183;DHT22;23991;52.430;10.586;2022-07-29T14:11:49;35.10;22.30
38183;DHT22;23991;52.430;10.586;2022-07-29T14:14:18;34.80;22.40
38183;DHT22;23991;52.430;10.586;2022-07-29T14:16:44;34.70;22.60
38183;DHT22;23991;52.430;10.586;2022-07-29T14:19:10;34.60;23.20
38183;DHT22;23991;52.430;10.586;2022-07-29T14:21:36;34.60;23.30
38183;DHT22;23991;52.430;10.586;2022-07-29T14:24:02;34.50;23.40
38183;DHT22;23991;52.430;10.586;2022-07-29T14:26:28;34.40;23.50
38183;DHT22;23991;52.430;10.586;2022-07-29T14:28:53;34.60;23.70
38183;DHT22;23991;52.430;10.586;2022-07-29T14:31:19;34.80;23.00
38183;DHT22;23991;52.430;10.586;2022-07-29T14:33:44;34.70;23.40
38183;DHT22;23991;52.430;10.586;2022-07-29T14:36:10;34.70;23.80
38183;DHT22;23991;52.430;10.586;2022-07-29T14:38:36;34.50;23.00
38183;DHT22;23991;52.430;10.586;2022-07-29T14:41:03;34.50;22.90
38183;DHT22;23991;52.430;10.586;2022-07-29T14:43:29;34.30;23.20
38183;DHT22;23991;52.430;10.586;2022-07-29T14:45:54;34.20;23.40
38183;DHT22;23991;52.430;10.586;2022-07-29T14:48:20;34.30;23.50
38183;DHT22;23991;52.430;10.586;2022-07-29T14:50:46;34.20;23.50
38183;DHT22;23991;52.430;10.586;2022-07-29T14:53:11;34.40;23.50
38183;DHT22;23991;52.430;10.586;2022-07-29T14:55:40;34.60;23.40
38183;DHT22;23991;52.430;10.586;2022-07-29T14:58:07;34.70;23.40
38183;DHT22;23991;52.430;10.586;2022-07-29T15:00:33;34.70;23.70
38183;DHT22;23991;52.430;10.586;2022-07-29T15:03:01;35.10;23.40
38183;DHT22;23991;52.430;10.586;2022-07-29T15:05:27;35.00;23.20
38183;DHT22;23991;52.430;10.586;2022-07-29T15:07:53;35.00;22.80
38183;DHT22;23991;52.430;10.586;2022-07-29T15:10:19;34.90;23.10
38183;DHT22;23991;52.430;10.586;2022-07-29T15:12:45;34.90;23.10
38183;DHT22;23991;52.430;10.586;2022-07-29T15:15:11;34.80;23.10
38183;DHT22;23991;52.430;10.586;2022-07-29T15:17:36;34.80;23.00
38183;DHT22;23991;52.430;10.586;2022-07-29T15:20:03;34.80;22.70
38183;DHT22;23991;52.430;10.586;2022-07-29T15:22:29;34.70;22.70
38183;DHT22;23991;52.430;10.586;2022-07-29T15:24:54;34.40;23.30
38183;DHT22;23991;52.430;10.586;2022-07-29T15:27:20;34.20;23.70
38183;DHT22;23991;52.430;10.586;2022-07-29T15:29:45;34.00;24.30
38183;DHT22;23991;52.430;10.586;2022-07-29T15:32:11;34.10;23.60
38183;DHT22;23991;52.430;10.586;2022-07-29T15:34:37;34.00;23.60
38183;DHT22;23991;52.430;10.586;2022-07-29T15:37:04;34.10;23.60
38183;DHT22;23991;52.430;10.586;2022-07-29T15:39:29;33.90;23.80
38183;DHT22;23991;52.430;10.586;2022-07-29T15:41:55;33.80;23.90
38183;DHT22;23991;52.430;10.586;2022-07-29T15:44:20;33.60;24.00
38183;DHT22;23991;52.430;10.586;2022-07-29T15:46:46;33.30;24.60
38183;DHT22;23991;52.430;10.586;2022-07-29T15:49:35;33.30;24.70
38183;DHT22;23991;52.430;10.586;2022-07-29T15:52:02;33.10;24.70
38183;DHT22;23991;52.430;10.586;2022-07-29T15:54:29;33.10;25.00
38183;DHT22;23991;52.430;10.586;2022-07-29T15:56:55;33.10;24.90
38183;DHT22;23991;52.430;10.586;2022-07-29T15:59:21;32.80;25.30
38183;DHT22;23991;52.430;10.586;2022-07-29T16:01:47;32.80;25.40
38183;DHT22;23991;52.430;10.586;2022-07-29T16:04:13;32.70;25.50
38183;DHT22;23991;52.430;10.586;2022-07-29T16:06:38;32.40;25.90
38183;DHT22;23991;52.430;10.586;2022-07-29T16:09:04;32.60;25.80
38183;DHT22;23991;52.430;10.586;2022-07-29T16:11:30;32.60;25.90